This is the latest recevied weather packets stored in our database for station/object EA2CW-13. If no packets are shown the sender has not sent any weather packets the latest 10 day(s).
| Time | Temp. | Humidity | Pressure | Rain* | Wind** | Luminosity | Snow |
|---|---|---|---|---|---|---|---|
| 1777385017 | 23.33° C | 56% | 1049.1 hPa | - | - | 47 W/m² | - |
| 1777384081 | 25.56° C | 53% | 1049.2 hPa | - | - | 87 W/m² | - |
| 1777383145 | 24.44° C | 55% | 1049.2 hPa | - | - | 80 W/m² | - |
| 1777382209 | 24.44° C | 55% | 1049.3 hPa | - | - | 65 W/m² | - |
| 1777381273 | 24.44° C | 55% | 1049.5 hPa | - | - | 59 W/m² | - |
| 1777380337 | 24.44° C | 57% | 1049.6 hPa | - | - | 71 W/m² | - |
| 1777379402 | 23.89° C | 57% | 1049.6 hPa | - | - | 73 W/m² | - |
| 1777378466 | 23.33° C | 58% | 1049.8 hPa | - | - | 55 W/m² | - |
| 1777377530 | 22.78° C | 59% | 1050 hPa | - | - | 48 W/m² | - |
| 1777376594 | 22.78° C | 61% | 1050.3 hPa | - | - | 54 W/m² | - |
| 1777375658 | 22.78° C | 58% | 1050.5 hPa | - | - | 66 W/m² | - |
| 1777374722 | 23.33° C | 57% | 1050.6 hPa | - | - | 50 W/m² | - |
| 1777373786 | 23.89° C | 56% | 1050.6 hPa | - | - | 65 W/m² | - |
| 1777372850 | 24.44° C | 57% | 1050.9 hPa | - | - | 72 W/m² | - |
| 1777371914 | 22.78° C | 60% | 1051.1 hPa | - | - | 50 W/m² | - |
| 1777370978 | 22.22° C | 60% | 1051.1 hPa | - | - | 44 W/m² | - |
| 1777370042 | 23.33° C | 60% | 1051.1 hPa | - | - | 61 W/m² | - |
| 1777369106 | 22.78° C | 62% | 1051.2 hPa | - | - | 48 W/m² | - |
| 1777368170 | 22.78° C | 65% | 1051.3 hPa | - | - | 47 W/m² | - |
| 1777367234 | 22.22° C | 68% | 1051.3 hPa | - | - | 50 W/m² | - |
| 1777366298 | 21.67° C | 72% | 1051.5 hPa | - | - | 46 W/m² | - |
| 1777365362 | 20.56° C | 75% | 1051.4 hPa | - | - | 34 W/m² | - |
| 1777364426 | 20.56° C | 77% | 1051.4 hPa | - | - | 26 W/m² | - |
| 1777363490 | 20° C | 79% | 1051.5 hPa | - | - | 24 W/m² | - |
| 1777362554 | 19.44° C | 81% | 1051.5 hPa | - | - | 19 W/m² | - |
* Rain since midnight (hover to see other rain measurements)
** Current wind speed in m/s (hover to see current wind gust speed)